sensor_id;sensor_type;location;lat;lon;timestamp;P1;durP1;ratioP1;P2;durP2;ratioP2
67571;SDS011;54397;47.506;19.158;2023-07-29T00:02:14;3.00;;;2.10;;
67571;SDS011;54397;47.506;19.158;2023-07-29T00:05:41;3.28;;;2.03;;
67571;SDS011;54397;47.506;19.158;2023-07-29T00:09:03;3.50;;;2.22;;
67571;SDS011;54397;47.506;19.158;2023-07-29T00:12:24;2.42;;;2.22;;
67571;SDS011;54397;47.506;19.158;2023-07-29T00:15:46;6.57;;;2.03;;
67571;SDS011;54397;47.506;19.158;2023-07-29T00:19:10;2.40;;;1.83;;
67571;SDS011;54397;47.506;19.158;2023-07-29T00:22:32;2.50;;;2.05;;
67571;SDS011;54397;47.506;19.158;2023-07-29T00:25:56;2.38;;;2.08;;
67571;SDS011;54397;47.506;19.158;2023-07-29T00:29:18;2.30;;;1.83;;
67571;SDS011;54397;47.506;19.158;2023-07-29T00:32:40;3.10;;;2.22;;
67571;SDS011;54397;47.506;19.158;2023-07-29T00:36:04;1.70;;;1.60;;
67571;SDS011;54397;47.506;19.158;2023-07-29T00:39:26;2.67;;;1.90;;
67571;SDS011;54397;47.506;19.158;2023-07-29T00:42:52;3.38;;;1.88;;
67571;SDS011;54397;47.506;19.158;2023-07-29T00:46:14;4.68;;;2.08;;
67571;SDS011;54397;47.506;19.158;2023-07-29T00:49:39;2.38;;;1.92;;
67571;SDS011;54397;47.506;19.158;2023-07-29T00:53:03;4.53;;;1.65;;
67571;SDS011;54397;47.506;19.158;2023-07-29T00:56:25;1.90;;;1.80;;
67571;SDS011;54397;47.506;19.158;2023-07-29T00:59:49;2.53;;;1.90;;
67571;SDS011;54397;47.506;19.158;2023-07-29T01:03:11;2.67;;;2.00;;
67571;SDS011;54397;47.506;19.158;2023-07-29T01:10:01;1.95;;;1.67;;
67571;SDS011;54397;47.506;19.158;2023-07-29T01:13:44;2.35;;;2.10;;
67571;SDS011;54397;47.506;19.158;2023-07-29T01:17:18;2.08;;;1.70;;
67571;SDS011;54397;47.506;19.158;2023-07-29T01:20:46;3.42;;;2.05;;
67571;SDS011;54397;47.506;19.158;2023-07-29T01:24:12;2.10;;;1.90;;
67571;SDS011;54397;47.506;19.158;2023-07-29T01:27:33;2.20;;;1.95;;
67571;SDS011;54397;47.506;19.158;2023-07-29T01:31:03;3.83;;;2.20;;
67571;SDS011;54397;47.506;19.158;2023-07-29T01:34:52;4.15;;;1.80;;
67571;SDS011;54397;47.506;19.158;2023-07-29T01:38:24;2.28;;;1.95;;
67571;SDS011;54397;47.506;19.158;2023-07-29T01:42:05;2.65;;;1.75;;
67571;SDS011;54397;47.506;19.158;2023-07-29T01:45:30;3.05;;;1.90;;
67571;SDS011;54397;47.506;19.158;2023-07-29T01:48:56;2.42;;;2.08;;
67571;SDS011;54397;47.506;19.158;2023-07-29T01:52:18;4.05;;;1.90;;
67571;SDS011;54397;47.506;19.158;2023-07-29T01:55:42;3.55;;;2.10;;
67571;SDS011;54397;47.506;19.158;2023-07-29T01:59:06;2.45;;;2.00;;
67571;SDS011;54397;47.506;19.158;2023-07-29T02:02:27;4.13;;;2.00;;
67571;SDS011;54397;47.506;19.158;2023-07-29T02:05:49;2.60;;;2.00;;
67571;SDS011;54397;47.506;19.158;2023-07-29T02:09:11;2.50;;;2.17;;
67571;SDS011;54397;47.506;19.158;2023-07-29T02:12:33;1.77;;;1.67;;
67571;SDS011;54397;47.506;19.158;2023-07-29T02:15:57;3.75;;;2.20;;
67571;SDS011;54397;47.506;19.158;2023-07-29T02:19:18;5.00;;;2.20;;
67571;SDS011;54397;47.506;19.158;2023-07-29T02:22:40;3.28;;;2.00;;
67571;SDS011;54397;47.506;19.158;2023-07-29T02:26:02;4.43;;;2.10;;
67571;SDS011;54397;47.506;19.158;2023-07-29T02:29:28;1.90;;;1.73;;
67571;SDS011;54397;47.506;19.158;2023-07-29T02:32:51;2.33;;;1.77;;
67571;SDS011;54397;47.506;19.158;2023-07-29T02:36:13;7.40;;;2.80;;
67571;SDS011;54397;47.506;19.158;2023-07-29T02:39:35;2.38;;;1.88;;
67571;SDS011;54397;47.506;19.158;2023-07-29T02:42:57;2.05;;;1.60;;
67571;SDS011;54397;47.506;19.158;2023-07-29T02:46:21;2.45;;;1.98;;
67571;SDS011;54397;47.506;19.158;2023-07-29T02:49:42;1.83;;;1.73;;
67571;SDS011;54397;47.506;19.158;2023-07-29T02:53:06;2.20;;;2.00;;
67571;SDS011;54397;47.506;19.158;2023-07-29T02:56:28;2.25;;;1.95;;
67571;SDS011;54397;47.506;19.158;2023-07-29T02:59:51;1.92;;;1.80;;
67571;SDS011;54397;47.506;19.158;2023-07-29T03:03:14;2.40;;;1.90;;
67571;SDS011;54397;47.506;19.158;2023-07-29T03:06:36;2.10;;;1.90;;
67571;SDS011;54397;47.506;19.158;2023-07-29T03:09:58;3.10;;;2.15;;
67571;SDS011;54397;47.506;19.158;2023-07-29T03:13:20;2.00;;;1.75;;
67571;SDS011;54397;47.506;19.158;2023-07-29T03:16:46;3.10;;;2.20;;
67571;SDS011;54397;47.506;19.158;2023-07-29T03:20:08;2.58;;;2.25;;
67571;SDS011;54397;47.506;19.158;2023-07-29T03:23:33;5.55;;;1.90;;
67571;SDS011;54397;47.506;19.158;2023-07-29T03:26:57;4.13;;;2.08;;
67571;SDS011;54397;47.506;19.158;2023-07-29T03:30:19;3.03;;;1.77;;
67571;SDS011;54397;47.506;19.158;2023-07-29T03:33:43;2.08;;;1.75;;
67571;SDS011;54397;47.506;19.158;2023-07-29T03:37:08;2.35;;;1.80;;
67571;SDS011;54397;47.506;19.158;2023-07-29T03:40:30;3.95;;;2.03;;
67571;SDS011;54397;47.506;19.158;2023-07-29T03:43:52;4.75;;;1.75;;
67571;SDS011;54397;47.506;19.158;2023-07-29T03:47:13;2.53;;;1.67;;
67571;SDS011;54397;47.506;19.158;2023-07-29T03:50:35;2.72;;;2.05;;
67571;SDS011;54397;47.506;19.158;2023-07-29T03:53:57;3.53;;;2.03;;
67571;SDS011;54397;47.506;19.158;2023-07-29T03:57:19;3.67;;;2.28;;
67571;SDS011;54397;47.506;19.158;2023-07-29T04:00:41;3.45;;;1.83;;
67571;SDS011;54397;47.506;19.158;2023-07-29T04:04:02;1.92;;;1.70;;
67571;SDS011;54397;47.506;19.158;2023-07-29T04:07:27;1.95;;;1.77;;
67571;SDS011;54397;47.506;19.158;2023-07-29T04:10:49;2.35;;;1.75;;
67571;SDS011;54397;47.506;19.158;2023-07-29T04:14:13;2.20;;;1.88;;
67571;SDS011;54397;47.506;19.158;2023-07-29T04:17:35;3.67;;;1.73;;
67571;SDS011;54397;47.506;19.158;2023-07-29T04:20:56;4.63;;;1.75;;
67571;SDS011;54397;47.506;19.158;2023-07-29T04:24:20;2.15;;;1.95;;
67571;SDS011;54397;47.506;19.158;2023-07-29T04:27:44;3.72;;;1.95;;
67571;SDS011;54397;47.506;19.158;2023-07-29T04:31:06;3.70;;;2.17;;
67571;SDS011;54397;47.506;19.158;2023-07-29T04:34:36;2.60;;;2.10;;
67571;SDS011;54397;47.506;19.158;2023-07-29T04:37:58;2.63;;;1.88;;
67571;SDS011;54397;47.506;19.158;2023-07-29T04:41:20;2.38;;;2.17;;
67571;SDS011;54397;47.506;19.158;2023-07-29T04:44:44;3.97;;;2.20;;
67571;SDS011;54397;47.506;19.158;2023-07-29T04:48:08;3.58;;;1.90;;
67571;SDS011;54397;47.506;19.158;2023-07-29T04:51:33;5.15;;;2.25;;
67571;SDS011;54397;47.506;19.158;2023-07-29T04:58:20;3.75;;;2.10;;
67571;SDS011;54397;47.506;19.158;2023-07-29T05:01:44;3.10;;;2.20;;
67571;SDS011;54397;47.506;19.158;2023-07-29T05:05:05;2.30;;;2.10;;
67571;SDS011;54397;47.506;19.158;2023-07-29T05:08:28;3.17;;;2.38;;
67571;SDS011;54397;47.506;19.158;2023-07-29T05:11:50;3.60;;;2.50;;
67571;SDS011;54397;47.506;19.158;2023-07-29T05:15:11;3.28;;;2.58;;
67571;SDS011;54397;47.506;19.158;2023-07-29T05:18:33;3.50;;;2.33;;
67571;SDS011;54397;47.506;19.158;2023-07-29T05:21:57;4.65;;;2.60;;
67571;SDS011;54397;47.506;19.158;2023-07-29T05:25:24;2.70;;;2.17;;
67571;SDS011;54397;47.506;19.158;2023-07-29T05:28:48;4.85;;;2.35;;
67571;SDS011;54397;47.506;19.158;2023-07-29T05:32:11;3.75;;;2.03;;
67571;SDS011;54397;47.506;19.158;2023-07-29T05:35:35;2.38;;;2.08;;
67571;SDS011;54397;47.506;19.158;2023-07-29T05:38:58;4.57;;;2.17;;
67571;SDS011;54397;47.506;19.158;2023-07-29T05:42:20;2.40;;;2.20;;
67571;SDS011;54397;47.506;19.158;2023-07-29T05:45:44;2.28;;;2.05;;
67571;SDS011;54397;47.506;19.158;2023-07-29T05:49:06;2.40;;;2.03;;
67571;SDS011;54397;47.506;19.158;2023-07-29T05:52:28;2.53;;;2.13;;
67571;SDS011;54397;47.506;19.158;2023-07-29T05:55:51;2.22;;;1.90;;
67571;SDS011;54397;47.506;19.158;2023-07-29T05:59:18;2.10;;;1.90;;
67571;SDS011;54397;47.506;19.158;2023-07-29T06:02:39;3.53;;;2.03;;
67571;SDS011;54397;47.506;19.158;2023-07-29T06:06:04;2.78;;;1.98;;
67571;SDS011;54397;47.506;19.158;2023-07-29T06:09:28;5.22;;;1.75;;
67571;SDS011;54397;47.506;19.158;2023-07-29T06:12:50;1.75;;;1.65;;
67571;SDS011;54397;47.506;19.158;2023-07-29T06:16:12;2.60;;;2.15;;
67571;SDS011;54397;47.506;19.158;2023-07-29T06:19:34;2.17;;;1.70;;
67571;SDS011;54397;47.506;19.158;2023-07-29T06:22:55;2.25;;;2.00;;
67571;SDS011;54397;47.506;19.158;2023-07-29T06:26:17;3.03;;;1.52;;
67571;SDS011;54397;47.506;19.158;2023-07-29T06:29:38;1.98;;;1.65;;
67571;SDS011;54397;47.506;19.158;2023-07-29T06:33:02;2.25;;;2.05;;
67571;SDS011;54397;47.506;19.158;2023-07-29T06:36:24;2.63;;;1.67;;
67571;SDS011;54397;47.506;19.158;2023-07-29T06:39:46;6.47;;;1.77;;
67571;SDS011;54397;47.506;19.158;2023-07-29T06:43:08;2.20;;;2.00;;
67571;SDS011;54397;47.506;19.158;2023-07-29T06:46:30;3.22;;;1.98;;
67571;SDS011;54397;47.506;19.158;2023-07-29T06:49:53;2.83;;;2.10;;
67571;SDS011;54397;47.506;19.158;2023-07-29T06:53:17;3.65;;;1.80;;
67571;SDS011;54397;47.506;19.158;2023-07-29T06:56:39;2.33;;;1.95;;
67571;SDS011;54397;47.506;19.158;2023-07-29T07:00:03;1.90;;;1.80;;
67571;SDS011;54397;47.506;19.158;2023-07-29T07:03:25;8.15;;;2.08;;
67571;SDS011;54397;47.506;19.158;2023-07-29T07:06:49;5.00;;;1.90;;
67571;SDS011;54397;47.506;19.158;2023-07-29T07:10:11;1.77;;;1.67;;
67571;SDS011;54397;47.506;19.158;2023-07-29T07:13:35;3.60;;;2.40;;
67571;SDS011;54397;47.506;19.158;2023-07-29T07:16:57;1.88;;;1.70;;
67571;SDS011;54397;47.506;19.158;2023-07-29T07:20:21;3.03;;;1.95;;
67571;SDS011;54397;47.506;19.158;2023-07-29T07:23:42;2.03;;;1.80;;
67571;SDS011;54397;47.506;19.158;2023-07-29T07:27:07;2.17;;;1.83;;
67571;SDS011;54397;47.506;19.158;2023-07-29T07:30:29;2.25;;;2.03;;
67571;SDS011;54397;47.506;19.158;2023-07-29T07:33:50;4.60;;;2.20;;
67571;SDS011;54397;47.506;19.158;2023-07-29T07:37:15;2.17;;;1.70;;
67571;SDS011;54397;47.506;19.158;2023-07-29T07:40:37;1.67;;;1.58;;
67571;SDS011;54397;47.506;19.158;2023-07-29T07:43:58;1.80;;;1.65;;
67571;SDS011;54397;47.506;19.158;2023-07-29T07:47:20;2.22;;;1.40;;
67571;SDS011;54397;47.506;19.158;2023-07-29T07:50:46;1.57;;;1.47;;
67571;SDS011;54397;47.506;19.158;2023-07-29T07:54:08;1.85;;;1.50;;
67571;SDS011;54397;47.506;19.158;2023-07-29T07:57:30;2.50;;;1.60;;
67571;SDS011;54397;47.506;19.158;2023-07-29T08:00:51;2.10;;;1.60;;
67571;SDS011;54397;47.506;19.158;2023-07-29T08:04:13;1.65;;;1.42;;
67571;SDS011;54397;47.506;19.158;2023-07-29T08:07:35;1.83;;;1.73;;
67571;SDS011;54397;47.506;19.158;2023-07-29T08:10:57;1.88;;;1.67;;
67571;SDS011;54397;47.506;19.158;2023-07-29T08:14:21;1.55;;;1.40;;
67571;SDS011;54397;47.506;19.158;2023-07-29T08:17:43;1.90;;;1.70;;
67571;SDS011;54397;47.506;19.158;2023-07-29T08:21:07;2.10;;;1.75;;
67571;SDS011;54397;47.506;19.158;2023-07-29T08:24:28;2.78;;;1.60;;
67571;SDS011;54397;47.506;19.158;2023-07-29T08:27:50;2.88;;;1.70;;
67571;SDS011;54397;47.506;19.158;2023-07-29T08:31:12;2.08;;;1.80;;
67571;SDS011;54397;47.506;19.158;2023-07-29T08:34:36;1.73;;;1.63;;
67571;SDS011;54397;47.506;19.158;2023-07-29T08:37:59;2.47;;;1.58;;
67571;SDS011;54397;47.506;19.158;2023-07-29T08:41:27;2.22;;;1.52;;
67571;SDS011;54397;47.506;19.158;2023-07-29T08:44:52;2.33;;;1.85;;
67571;SDS011;54397;47.506;19.158;2023-07-29T08:48:16;1.90;;;1.48;;
67571;SDS011;54397;47.506;19.158;2023-07-29T08:51:48;1.40;;;1.30;;
67571;SDS011;54397;47.506;19.158;2023-07-29T08:55:10;1.50;;;1.40;;
67571;SDS011;54397;47.506;19.158;2023-07-29T08:58:34;2.15;;;1.73;;
67571;SDS011;54397;47.506;19.158;2023-07-29T09:01:57;1.15;;;1.13;;
67571;SDS011;54397;47.506;19.158;2023-07-29T09:05:20;1.27;;;1.20;;
67571;SDS011;54397;47.506;19.158;2023-07-29T09:08:49;1.33;;;1.23;;
67571;SDS011;54397;47.506;19.158;2023-07-29T09:12:12;1.15;;;1.00;;
67571;SDS011;54397;47.506;19.158;2023-07-29T09:15:37;1.77;;;0.80;;
67571;SDS011;54397;47.506;19.158;2023-07-29T09:19:01;1.23;;;1.13;;
67571;SDS011;54397;47.506;19.158;2023-07-29T09:22:26;1.40;;;1.30;;
67571;SDS011;54397;47.506;19.158;2023-07-29T09:25:48;0.90;;;0.90;;
67571;SDS011;54397;47.506;19.158;2023-07-29T09:29:13;1.10;;;1.00;;
67571;SDS011;54397;47.506;19.158;2023-07-29T09:32:46;3.03;;;0.95;;
67571;SDS011;54397;47.506;19.158;2023-07-29T09:36:14;4.10;;;1.30;;
67571;SDS011;54397;47.506;19.158;2023-07-29T09:39:35;0.90;;;0.90;;
67571;SDS011;54397;47.506;19.158;2023-07-29T09:42:57;1.25;;;1.00;;
67571;SDS011;54397;47.506;19.158;2023-07-29T09:46:19;1.27;;;1.05;;
67571;SDS011;54397;47.506;19.158;2023-07-29T09:49:44;0.80;;;0.80;;
67571;SDS011;54397;47.506;19.158;2023-07-29T09:53:08;1.10;;;0.80;;
67571;SDS011;54397;47.506;19.158;2023-07-29T09:56:30;1.00;;;1.00;;
67571;SDS011;54397;47.506;19.158;2023-07-29T09:59:55;1.20;;;1.10;;
67571;SDS011;54397;47.506;19.158;2023-07-29T10:03:22;1.10;;;1.00;;
67571;SDS011;54397;47.506;19.158;2023-07-29T10:06:46;0.98;;;0.98;;
67571;SDS011;54397;47.506;19.158;2023-07-29T10:10:11;1.02;;;0.80;;
67571;SDS011;54397;47.506;19.158;2023-07-29T10:13:36;1.67;;;1.58;;
67571;SDS011;54397;47.506;19.158;2023-07-29T10:16:59;0.90;;;0.90;;
67571;SDS011;54397;47.506;19.158;2023-07-29T10:20:23;0.68;;;0.68;;
67571;SDS011;54397;47.506;19.158;2023-07-29T10:23:47;0.82;;;0.82;;
67571;SDS011;54397;47.506;19.158;2023-07-29T10:27:11;0.65;;;0.65;;
67571;SDS011;54397;47.506;19.158;2023-07-29T10:30:38;0.82;;;0.82;;
67571;SDS011;54397;47.506;19.158;2023-07-29T10:34:00;0.88;;;0.88;;
67571;SDS011;54397;47.506;19.158;2023-07-29T10:37:23;1.70;;;1.60;;
67571;SDS011;54397;47.506;19.158;2023-07-29T10:48:00;1.00;;;0.90;;
67571;SDS011;54397;47.506;19.158;2023-07-29T10:54:56;0.73;;;0.73;;
67571;SDS011;54397;47.506;19.158;2023-07-29T10:58:21;0.98;;;0.98;;
67571;SDS011;54397;47.506;19.158;2023-07-29T11:02:11;0.88;;;0.88;;
67571;SDS011;54397;47.506;19.158;2023-07-29T11:05:52;0.80;;;0.77;;
67571;SDS011;54397;47.506;19.158;2023-07-29T11:13:20;1.10;;;0.98;;
67571;SDS011;54397;47.506;19.158;2023-07-29T11:16:41;1.23;;;0.90;;
67571;SDS011;54397;47.506;19.158;2023-07-29T11:20:04;1.15;;;1.05;;
67571;SDS011;54397;47.506;19.158;2023-07-29T11:23:34;1.73;;;1.00;;
67571;SDS011;54397;47.506;19.158;2023-07-29T11:27:01;1.30;;;1.20;;
67571;SDS011;54397;47.506;19.158;2023-07-29T11:30:25;1.10;;;1.10;;
67571;SDS011;54397;47.506;19.158;2023-07-29T11:33:48;1.05;;;1.02;;
67571;SDS011;54397;47.506;19.158;2023-07-29T11:37:16;0.80;;;0.80;;
67571;SDS011;54397;47.506;19.158;2023-07-29T11:40:42;2.25;;;0.95;;
67571;SDS011;54397;47.506;19.158;2023-07-29T11:44:04;1.38;;;1.00;;
67571;SDS011;54397;47.506;19.158;2023-07-29T11:47:42;1.60;;;1.50;;
67571;SDS011;54397;47.506;19.158;2023-07-29T11:51:07;0.73;;;0.73;;
67571;SDS011;54397;47.506;19.158;2023-07-29T11:54:33;1.10;;;0.98;;
67571;SDS011;54397;47.506;19.158;2023-07-29T11:57:58;1.48;;;1.30;;
67571;SDS011;54397;47.506;19.158;2023-07-29T12:01:22;1.02;;;1.02;;
67571;SDS011;54397;47.506;19.158;2023-07-29T12:04:44;1.27;;;1.17;;
67571;SDS011;54397;47.506;19.158;2023-07-29T12:08:08;3.75;;;1.30;;
67571;SDS011;54397;47.506;19.158;2023-07-29T12:11:32;1.30;;;1.20;;
67571;SDS011;54397;47.506;19.158;2023-07-29T12:14:54;1.10;;;1.00;;
67571;SDS011;54397;47.506;19.158;2023-07-29T12:18:19;1.20;;;1.10;;
67571;SDS011;54397;47.506;19.158;2023-07-29T12:21:50;0.90;;;0.90;;
67571;SDS011;54397;47.506;19.158;2023-07-29T12:25:14;1.02;;;0.93;;
67571;SDS011;54397;47.506;19.158;2023-07-29T12:28:36;1.00;;;1.00;;
67571;SDS011;54397;47.506;19.158;2023-07-29T12:35:24;1.88;;;1.10;;
67571;SDS011;54397;47.506;19.158;2023-07-29T12:38:45;1.20;;;1.20;;
67571;SDS011;54397;47.506;19.158;2023-07-29T12:42:07;1.02;;;1.02;;
67571;SDS011;54397;47.506;19.158;2023-07-29T12:45:35;1.38;;;1.00;;
67571;SDS011;54397;47.506;19.158;2023-07-29T12:48:57;1.80;;;1.20;;
67571;SDS011;54397;47.506;19.158;2023-07-29T12:52:21;1.58;;;1.30;;
67571;SDS011;54397;47.506;19.158;2023-07-29T12:55:45;1.92;;;1.70;;
67571;SDS011;54397;47.506;19.158;2023-07-29T12:59:06;1.45;;;1.10;;
67571;SDS011;54397;47.506;19.158;2023-07-29T13:02:28;2.50;;;1.30;;
67571;SDS011;54397;47.506;19.158;2023-07-29T13:05:50;1.73;;;1.20;;
67571;SDS011;54397;47.506;19.158;2023-07-29T13:09:16;1.30;;;1.20;;
67571;SDS011;54397;47.506;19.158;2023-07-29T13:12:40;1.48;;;1.02;;
67571;SDS011;54397;47.506;19.158;2023-07-29T13:16:02;1.23;;;1.10;;
67571;SDS011;54397;47.506;19.158;2023-07-29T13:19:24;1.10;;;1.00;;
67571;SDS011;54397;47.506;19.158;2023-07-29T13:22:46;1.05;;;0.95;;
67571;SDS011;54397;47.506;19.158;2023-07-29T13:26:10;1.55;;;1.20;;
67571;SDS011;54397;47.506;19.158;2023-07-29T13:29:32;1.38;;;1.02;;
67571;SDS011;54397;47.506;19.158;2023-07-29T13:32:56;1.25;;;1.15;;
67571;SDS011;54397;47.506;19.158;2023-07-29T13:36:18;1.38;;;1.20;;
67571;SDS011;54397;47.506;19.158;2023-07-29T13:39:39;1.05;;;1.05;;
67571;SDS011;54397;47.506;19.158;2023-07-29T13:43:01;0.90;;;0.90;;
67571;SDS011;54397;47.506;19.158;2023-07-29T13:46:26;1.33;;;1.23;;
67571;SDS011;54397;47.506;19.158;2023-07-29T13:49:53;1.05;;;1.00;;
67571;SDS011;54397;47.506;19.158;2023-07-29T13:53:14;1.00;;;1.00;;
67571;SDS011;54397;47.506;19.158;2023-07-29T13:56:39;1.45;;;1.15;;
67571;SDS011;54397;47.506;19.158;2023-07-29T14:00:00;1.35;;;1.20;;
67571;SDS011;54397;47.506;19.158;2023-07-29T14:03:24;1.10;;;1.00;;
67571;SDS011;54397;47.506;19.158;2023-07-29T14:06:46;1.10;;;1.10;;
67571;SDS011;54397;47.506;19.158;2023-07-29T14:10:19;1.00;;;1.00;;
67571;SDS011;54397;47.506;19.158;2023-07-29T14:13:45;1.15;;;1.10;;
67571;SDS011;54397;47.506;19.158;2023-07-29T14:17:07;0.90;;;0.90;;
67571;SDS011;54397;47.506;19.158;2023-07-29T14:20:29;1.15;;;1.10;;
67571;SDS011;54397;47.506;19.158;2023-07-29T14:23:52;1.20;;;1.10;;
67571;SDS011;54397;47.506;19.158;2023-07-29T14:27:13;1.65;;;1.15;;
67571;SDS011;54397;47.506;19.158;2023-07-29T14:30:37;0.93;;;0.93;;
67571;SDS011;54397;47.506;19.158;2023-07-29T14:33:59;1.20;;;1.10;;
67571;SDS011;54397;47.506;19.158;2023-07-29T14:37:23;1.20;;;1.10;;
67571;SDS011;54397;47.506;19.158;2023-07-29T14:40:47;1.30;;;1.20;;
67571;SDS011;54397;47.506;19.158;2023-07-29T14:44:09;0.90;;;0.90;;
67571;SDS011;54397;47.506;19.158;2023-07-29T14:47:33;4.13;;;1.00;;
67571;SDS011;54397;47.506;19.158;2023-07-29T14:50:57;1.23;;;1.00;;
67571;SDS011;54397;47.506;19.158;2023-07-29T14:54:22;1.35;;;1.25;;
67571;SDS011;54397;47.506;19.158;2023-07-29T14:57:43;1.33;;;1.23;;
67571;SDS011;54397;47.506;19.158;2023-07-29T15:01:05;1.15;;;1.10;;
67571;SDS011;54397;47.506;19.158;2023-07-29T15:04:29;1.25;;;1.10;;
67571;SDS011;54397;47.506;19.158;2023-07-29T15:07:51;0.98;;;0.98;;
67571;SDS011;54397;47.506;19.158;2023-07-29T15:11:12;1.05;;;1.05;;
67571;SDS011;54397;47.506;19.158;2023-07-29T15:14:34;1.27;;;1.17;;
67571;SDS011;54397;47.506;19.158;2023-07-29T15:17:56;1.55;;;1.30;;
67571;SDS011;54397;47.506;19.158;2023-07-29T15:21:18;1.30;;;1.20;;
67571;SDS011;54397;47.506;19.158;2023-07-29T15:24:43;1.35;;;1.17;;
67571;SDS011;54397;47.506;19.158;2023-07-29T15:28:04;1.48;;;1.38;;
67571;SDS011;54397;47.506;19.158;2023-07-29T15:31:26;1.20;;;1.20;;
67571;SDS011;54397;47.506;19.158;2023-07-29T15:34:48;1.58;;;1.45;;
67571;SDS011;54397;47.506;19.158;2023-07-29T15:38:10;1.65;;;1.20;;
67571;SDS011;54397;47.506;19.158;2023-07-29T15:41:32;1.00;;;1.00;;
67571;SDS011;54397;47.506;19.158;2023-07-29T15:44:57;1.33;;;1.23;;
67571;SDS011;54397;47.506;19.158;2023-07-29T15:48:24;1.50;;;1.35;;
67571;SDS011;54397;47.506;19.158;2023-07-29T15:51:48;1.63;;;1.35;;
67571;SDS011;54397;47.506;19.158;2023-07-29T15:55:09;1.50;;;1.13;;
67571;SDS011;54397;47.506;19.158;2023-07-29T15:58:31;1.38;;;1.27;;
67571;SDS011;54397;47.506;19.158;2023-07-29T16:01:55;1.33;;;1.30;;
67571;SDS011;54397;47.506;19.158;2023-07-29T16:05:19;1.40;;;1.30;;
67571;SDS011;54397;47.506;19.158;2023-07-29T16:08:41;1.02;;;1.02;;
67571;SDS011;54397;47.506;19.158;2023-07-29T16:12:03;1.00;;;1.00;;
67571;SDS011;54397;47.506;19.158;2023-07-29T16:15:25;1.20;;;1.10;;
67571;SDS011;54397;47.506;19.158;2023-07-29T16:18:46;1.25;;;1.15;;
67571;SDS011;54397;47.506;19.158;2023-07-29T16:22:08;1.23;;;1.13;;
67571;SDS011;54397;47.506;19.158;2023-07-29T16:25:32;3.50;;;1.38;;
67571;SDS011;54397;47.506;19.158;2023-07-29T16:28:54;1.30;;;1.10;;
67571;SDS011;54397;47.506;19.158;2023-07-29T16:32:18;1.50;;;1.40;;
67571;SDS011;54397;47.506;19.158;2023-07-29T16:35:40;1.30;;;1.20;;
67571;SDS011;54397;47.506;19.158;2023-07-29T16:39:04;1.45;;;1.35;;
67571;SDS011;54397;47.506;19.158;2023-07-29T16:42:26;5.30;;;1.40;;
67571;SDS011;54397;47.506;19.158;2023-07-29T16:45:48;1.48;;;1.30;;
67571;SDS011;54397;47.506;19.158;2023-07-29T16:49:09;1.23;;;1.17;;
67571;SDS011;54397;47.506;19.158;2023-07-29T16:52:45;1.02;;;1.02;;
67571;SDS011;54397;47.506;19.158;2023-07-29T16:56:07;2.25;;;1.63;;
67571;SDS011;54397;47.506;19.158;2023-07-29T16:59:31;1.42;;;1.33;;
67571;SDS011;54397;47.506;19.158;2023-07-29T17:02:57;5.07;;;2.03;;
67571;SDS011;54397;47.506;19.158;2023-07-29T17:06:19;2.13;;;1.92;;
67571;SDS011;54397;47.506;19.158;2023-07-29T17:22:57;1.30;;;1.20;;
67571;SDS011;54397;47.506;19.158;2023-07-29T17:26:19;1.77;;;1.50;;
67571;SDS011;54397;47.506;19.158;2023-07-29T17:29:46;1.52;;;1.40;;
67571;SDS011;54397;47.506;19.158;2023-07-29T17:33:07;1.70;;;1.40;;
67571;SDS011;54397;47.506;19.158;2023-07-29T17:36:31;1.98;;;1.50;;
67571;SDS011;54397;47.506;19.158;2023-07-29T17:39:53;2.25;;;1.40;;
67571;SDS011;54397;47.506;19.158;2023-07-29T17:43:15;1.42;;;1.30;;
67571;SDS011;54397;47.506;19.158;2023-07-29T17:46:39;1.45;;;1.30;;
67571;SDS011;54397;47.506;19.158;2023-07-29T17:50:02;2.28;;;1.67;;
67571;SDS011;54397;47.506;19.158;2023-07-29T17:53:24;1.83;;;1.23;;
67571;SDS011;54397;47.506;19.158;2023-07-29T17:56:51;3.03;;;1.45;;
67571;SDS011;54397;47.506;19.158;2023-07-29T18:00:13;1.45;;;1.35;;
67571;SDS011;54397;47.506;19.158;2023-07-29T18:03:37;2.83;;;1.30;;
67571;SDS011;54397;47.506;19.158;2023-07-29T18:06:59;2.75;;;1.35;;
67571;SDS011;54397;47.506;19.158;2023-07-29T18:10:24;1.40;;;1.30;;
67571;SDS011;54397;47.506;19.158;2023-07-29T18:13:46;1.40;;;1.27;;
67571;SDS011;54397;47.506;19.158;2023-07-29T18:17:10;1.85;;;1.38;;
67571;SDS011;54397;47.506;19.158;2023-07-29T18:20:34;2.37;;;1.37;;
67571;SDS011;54397;47.506;19.158;2023-07-29T18:23:59;1.58;;;1.33;;
67571;SDS011;54397;47.506;19.158;2023-07-29T18:27:23;1.13;;;1.05;;
67571;SDS011;54397;47.506;19.158;2023-07-29T18:30:48;1.17;;;1.17;;
67571;SDS011;54397;47.506;19.158;2023-07-29T18:34:11;2.17;;;1.20;;
67571;SDS011;54397;47.506;19.158;2023-07-29T18:37:33;4.95;;;1.70;;
67571;SDS011;54397;47.506;19.158;2023-07-29T18:40:58;1.45;;;1.20;;
67571;SDS011;54397;47.506;19.158;2023-07-29T18:44:20;1.77;;;1.42;;
67571;SDS011;54397;47.506;19.158;2023-07-29T18:47:41;1.88;;;1.30;;
67571;SDS011;54397;47.506;19.158;2023-07-29T18:51:03;3.15;;;1.20;;
67571;SDS011;54397;47.506;19.158;2023-07-29T18:54:28;1.60;;;1.20;;
67571;SDS011;54397;47.506;19.158;2023-07-29T18:57:55;3.50;;;1.43;;
67571;SDS011;54397;47.506;19.158;2023-07-29T19:01:17;2.53;;;1.35;;
67571;SDS011;54397;47.506;19.158;2023-07-29T19:04:45;1.60;;;1.40;;
67571;SDS011;54397;47.506;19.158;2023-07-29T19:08:09;1.30;;;1.20;;
67571;SDS011;54397;47.506;19.158;2023-07-29T19:11:35;1.30;;;1.10;;
67571;SDS011;54397;47.506;19.158;2023-07-29T19:14:56;2.58;;;1.52;;
67571;SDS011;54397;47.506;19.158;2023-07-29T19:18:18;1.48;;;1.35;;
67571;SDS011;54397;47.506;19.158;2023-07-29T19:21:42;1.92;;;1.42;;
67571;SDS011;54397;47.506;19.158;2023-07-29T19:25:04;1.92;;;1.42;;
67571;SDS011;54397;47.506;19.158;2023-07-29T19:28:26;2.25;;;1.58;;
67571;SDS011;54397;47.506;19.158;2023-07-29T19:31:50;1.50;;;1.40;;
67571;SDS011;54397;47.506;19.158;2023-07-29T19:35:13;2.08;;;1.38;;
67571;SDS011;54397;47.506;19.158;2023-07-29T19:38:35;1.55;;;1.35;;
67571;SDS011;54397;47.506;19.158;2023-07-29T19:41:57;2.47;;;1.58;;
67571;SDS011;54397;47.506;19.158;2023-07-29T19:45:19;1.60;;;1.50;;
67571;SDS011;54397;47.506;19.158;2023-07-29T19:48:45;1.70;;;1.60;;
67571;SDS011;54397;47.506;19.158;2023-07-29T19:52:06;2.45;;;1.30;;
67571;SDS011;54397;47.506;19.158;2023-07-29T19:55:28;3.90;;;2.80;;
67571;SDS011;54397;47.506;19.158;2023-07-29T19:58:52;3.08;;;2.38;;
67571;SDS011;54397;47.506;19.158;2023-07-29T20:02:16;3.17;;;2.38;;
67571;SDS011;54397;47.506;19.158;2023-07-29T20:05:39;2.95;;;2.45;;
67571;SDS011;54397;47.506;19.158;2023-07-29T20:09:03;2.60;;;2.40;;
67571;SDS011;54397;47.506;19.158;2023-07-29T20:12:27;3.33;;;2.00;;
67571;SDS011;54397;47.506;19.158;2023-07-29T20:15:52;2.80;;;2.15;;
67571;SDS011;54397;47.506;19.158;2023-07-29T20:19:16;2.72;;;2.38;;
67571;SDS011;54397;47.506;19.158;2023-07-29T20:22:41;4.40;;;2.92;;
67571;SDS011;54397;47.506;19.158;2023-07-29T20:26:05;8.77;;;3.90;;
67571;SDS011;54397;47.506;19.158;2023-07-29T20:29:29;7.05;;;3.13;;
67571;SDS011;54397;47.506;19.158;2023-07-29T20:32:51;3.75;;;2.38;;
67571;SDS011;54397;47.506;19.158;2023-07-29T20:36:15;2.28;;;1.83;;
67571;SDS011;54397;47.506;19.158;2023-07-29T20:39:37;3.55;;;2.33;;
67571;SDS011;54397;47.506;19.158;2023-07-29T20:43:01;2.42;;;1.50;;
67571;SDS011;54397;47.506;19.158;2023-07-29T20:46:25;2.25;;;1.70;;